YOU ARE USING AN OUTDATED BROWSER
It is limiting your browsing experience. Please upgrade to a modern browser.

ALIAGA (Demolition Yard)

Country: Turkey Country: Turkey (TR)
Latitude / Longitude: 38.830485° / 26.93075° Show on Map Show on Map
Local Time:  1585844754
Vessels in Port: 1
Expected Arrivals: 8

Recent Arrivals & Departures


Vessel Name
Arrival (UTC)
Arrival (LT)
Arrival (MT)
Arrival
Departure (UTC)
Departure (LT)
Departure (MT)
Departure
Vessel Type: Tugs & Special Craft  NETA 1 1585840440 1585840440 1585840440 1 hour, 11 minutes ago 1585840980 1585851780 1585840980 1 hour, 2 minutes ago
Vessel Type: Tankers  T.SEVGI 1585828740 1585828740 1585828740 4 hours, 26 minutes ago 1585829340 1585840140 1585829340 4 hours, 16 minutes ago
Vessel Type: Tugs & Special Craft  FALCON EXPRESS 3 1585636680 1585636680 1585636680 2 days, 9 hours ago 1585828680 1585839480 1585828680 4 hours, 27 minutes ago
Vessel Type: Tugs & Special Craft  KURTKULAGI 1585810920 1585810920 1585810920 9 hours, 23 minutes ago 1585824420 1585835220 1585824420 5 hours, 38 minutes ago
Vessel Type: Tugs & Special Craft  MURAT T 1585810980 1585810980 1585810980 9 hours, 22 minutes ago 1585814040 1585824840 1585814040 8 hours, 31 minutes ago
Vessel Type: Tugs & Special Craft  BARDAKOGLU 1585671240 1585671240 1585671240 2 days ago 1585813860 1585824660 1585813860 8 hours, 34 minutes ago
Vessel Type: Tankers  KINGFISHER V 1585775280 1585775280 1585775280 19 hours, 17 minutes ago 1585776000 1585786800 1585776000 19 hours, 5 minutes ago
Vessel Type: Tankers  CESME 2 1585760280 1585760280 1585760280 23 hours, 27 minutes ago 1585761000 1585771800 1585761000 23 hours, 15 minutes ago

Wind Forecast


    
Time (UTC)
Speed
Direction
Temperature
1585839600 19 knots 257° 13°C
1585850400 16 knots 312° 13°C
1585861200 14 knots 327° 12°C
1585872000 11 knots 356° 12°C
1585882800 9 knots 44° 11°C
1585893600 7 knots 70° 11°C
1585904400 4 knots 107° 13°C
1585915200 4 knots 276° 14°C
1585926000 5 knots 312° 14°C
1585936800 6 knots 355° 15°C
1585947600 6 knots 63° 16°C
1585958400 9 knots 81° 15°C
1585969200 9 knots 77° 14°C
1585980000 10 knots 73° 16°C
1585990800 9 knots 82° 19°C
1586001600 7 knots 70° 20°C
1586012400 16 knots 62° 20°C

No Photo

No Photos for this port. Be the first to upload one!